createdAt,value
2018-04-25T00:02:08.595Z,76.20
2018-04-25T00:04:36.073Z,76.10
2018-04-25T00:07:04.298Z,75.40
2018-04-25T00:09:31.790Z,75.40
2018-04-25T00:12:00.034Z,75.20
2018-04-25T00:14:27.527Z,74.60
2018-04-25T00:16:56.553Z,73.90
2018-04-25T00:19:24.110Z,73.90
2018-04-25T00:21:51.590Z,72.70
2018-04-25T00:24:19.085Z,72.20
2018-04-25T00:26:46.535Z,71.50
2018-04-25T00:29:14.777Z,71.10
2018-04-25T00:31:42.511Z,70.30
2018-04-25T00:34:09.990Z,70.20
2018-04-25T00:36:37.472Z,69.90
2018-04-25T00:39:04.959Z,69.60
2018-04-25T00:41:33.378Z,69.10
2018-04-25T00:44:00.894Z,69.10
2018-04-25T00:46:29.170Z,68.40
2018-04-25T00:48:57.436Z,68.10
2018-04-25T00:51:25.686Z,68.10
2018-04-25T00:53:53.173Z,68.10
2018-04-25T00:56:21.478Z,68.10
2018-04-25T00:58:48.962Z,67.90
2018-04-25T01:01:16.415Z,68.00
2018-04-25T01:03:43.890Z,67.90
2018-04-25T01:06:11.388Z,67.60
2018-04-25T01:08:38.853Z,67.70
2018-04-25T01:11:06.362Z,67.40
2018-04-25T01:13:33.841Z,67.10
2018-04-25T01:16:01.337Z,67.10
2018-04-25T01:18:28.853Z,67.00
2018-04-25T01:20:57.100Z,67.20
2018-04-25T01:23:24.585Z,67.00
2018-04-25T01:25:58.619Z,67.10
2018-04-25T01:28:26.207Z,67.00
2018-04-25T01:31:21.044Z,67.30
2018-04-25T01:33:54.927Z,67.10
2018-04-25T01:36:32.229Z,67.10
2018-04-25T01:41:54.911Z,67.00
2018-04-25T01:44:28.882Z,67.20
2018-04-25T01:47:01.749Z,67.10
2018-04-25T01:49:30.149Z,67.30
2018-04-25T01:52:09.533Z,67.20
2018-04-25T01:54:49.011Z,67.30
2018-04-25T01:57:28.367Z,67.20
2018-04-25T02:00:08.416Z,67.70
2018-04-25T02:02:36.157Z,67.10
2018-04-25T02:05:03.692Z,66.90
2018-04-25T02:07:31.179Z,66.90
2018-04-25T02:09:58.669Z,66.90
2018-04-25T02:12:26.174Z,67.00
2018-04-25T02:14:53.714Z,66.80
2018-04-25T02:17:21.192Z,66.80
2018-04-25T02:19:48.678Z,66.90
2018-04-25T02:22:16.938Z,66.90
2018-04-25T02:24:44.414Z,66.80
2018-04-25T02:27:11.896Z,67.00
2018-04-25T02:29:39.378Z,67.00
2018-04-25T02:32:06.867Z,66.90
2018-04-25T02:34:34.401Z,66.90
2018-04-25T02:37:01.899Z,67.00
2018-04-25T02:39:29.384Z,66.90
2018-04-25T02:41:56.861Z,67.00
2018-04-25T02:44:24.501Z,66.90
2018-04-25T02:46:52.146Z,66.80
2018-04-25T02:49:19.770Z,67.00
2018-04-25T02:51:47.363Z,67.00
2018-04-25T02:54:15.040Z,67.20
2018-04-25T02:56:42.506Z,67.40
2018-04-25T02:59:10.025Z,67.30
2018-04-25T03:01:38.275Z,67.60
2018-04-25T03:04:05.883Z,67.50
2018-04-25T03:06:33.361Z,67.70
2018-04-25T03:09:00.871Z,67.90
2018-04-25T03:11:29.131Z,68.00
2018-04-25T03:13:57.405Z,68.20
2018-04-25T03:16:25.057Z,68.00
2018-04-25T03:18:52.581Z,67.70
2018-04-25T03:21:20.077Z,68.30
2018-04-25T03:23:47.780Z,68.50
2018-04-25T03:26:15.277Z,68.50
2018-04-25T03:28:42.770Z,68.60
2018-04-25T03:31:11.003Z,69.10
2018-04-25T03:33:38.629Z,69.00
2018-04-25T03:36:06.207Z,69.20
2018-04-25T03:38:33.695Z,69.40
2018-04-25T03:41:01.358Z,69.40
2018-04-25T03:43:28.807Z,69.30
2018-04-25T03:45:56.321Z,69.50
2018-04-25T03:48:23.789Z,69.60
2018-04-25T03:50:51.264Z,70.00
2018-04-25T03:53:18.749Z,70.10
2018-04-25T03:55:47.023Z,70.70
2018-04-25T03:58:15.294Z,70.90
2018-04-25T04:00:42.800Z,70.90
2018-04-25T04:03:10.383Z,71.20
2018-04-25T04:05:37.878Z,71.20
2018-04-25T04:08:06.150Z,71.50
2018-04-25T04:10:34.388Z,72.00
2018-04-25T04:13:01.984Z,71.80
2018-04-25T04:15:29.541Z,71.90
2018-04-25T04:17:57.778Z,72.00
2018-04-25T04:20:25.258Z,71.90
2018-04-25T04:22:52.831Z,72.00
2018-04-25T04:25:21.146Z,72.50
2018-04-25T04:27:48.745Z,72.50
2018-04-25T04:30:16.281Z,72.80
2018-04-25T04:32:43.985Z,72.90
2018-04-25T04:35:12.338Z,72.90
2018-04-25T04:37:40.761Z,72.90
2018-04-25T04:40:08.572Z,73.20
2018-04-25T04:42:36.159Z,73.30
2018-04-25T04:45:04.430Z,73.90
2018-04-25T04:47:32.791Z,73.90
2018-04-25T04:50:00.358Z,73.80
2018-04-25T04:52:28.664Z,74.80
2018-04-25T04:54:56.189Z,74.10
2018-04-25T04:57:23.764Z,74.00
2018-04-25T04:59:52.029Z,74.20
2018-04-25T05:02:20.338Z,73.60
2018-04-25T05:04:47.859Z,73.60
2018-04-25T05:07:16.370Z,73.40
2018-04-25T05:09:43.866Z,73.40
2018-04-25T05:12:11.538Z,72.80
2018-04-25T05:14:39.073Z,72.80
2018-04-25T05:17:06.596Z,72.90
2018-04-25T05:19:34.054Z,72.90
2018-04-25T05:22:01.590Z,72.70
2018-04-25T05:24:29.960Z,72.70
2018-04-25T05:26:58.248Z,72.20
2018-04-25T05:29:26.584Z,72.30
2018-04-25T05:31:54.217Z,72.30
2018-04-25T05:34:21.667Z,72.30
2018-04-25T05:36:49.133Z,72.20
2018-04-25T05:39:18.205Z,71.90
2018-04-25T05:41:45.727Z,72.70
2018-04-25T05:44:13.266Z,73.90
2018-04-25T05:46:40.799Z,74.40
2018-04-25T05:49:08.291Z,76.10
2018-04-25T05:51:35.891Z,76.60
2018-04-25T05:54:03.578Z,77.50
2018-04-25T05:56:31.283Z,78.70
2018-04-25T05:58:58.893Z,80.10
2018-04-25T06:01:26.421Z,81.20
2018-04-25T06:03:54.701Z,84.30
2018-04-25T06:06:22.229Z,84.30
2018-04-25T06:08:49.887Z,85.40
2018-04-25T06:11:18.151Z,88.70
2018-04-25T06:13:45.664Z,88.60
2018-04-25T06:16:13.293Z,89.20
2018-04-25T06:18:41.566Z,90.10
2018-04-25T06:21:09.852Z,90.40
2018-04-25T06:23:38.083Z,91.00
2018-04-25T06:26:05.610Z,91.00
2018-04-25T06:28:33.340Z,91.40
2018-04-25T06:31:01.601Z,91.90
2018-04-25T06:33:29.119Z,91.90
2018-04-25T06:35:56.730Z,92.30
2018-04-25T06:38:24.965Z,92.00
2018-04-25T06:40:52.577Z,92.00
2018-04-25T06:43:20.202Z,91.70
2018-04-25T06:45:49.343Z,91.60
2018-04-25T06:48:16.848Z,91.60
2018-04-25T06:50:44.475Z,91.80
2018-04-25T06:53:12.042Z,91.90
2018-04-25T06:55:39.750Z,91.60
2018-04-25T06:58:08.004Z,91.80
2018-04-25T07:00:35.522Z,91.80
2018-04-25T07:03:03.235Z,91.90
2018-04-25T07:05:30.783Z,91.80
2018-04-25T07:07:59.218Z,92.00
2018-04-25T07:10:26.724Z,92.00
2018-04-25T07:12:54.240Z,92.20
2018-04-25T07:15:21.909Z,91.90
2018-04-25T07:17:49.481Z,91.10
2018-04-25T07:20:17.007Z,91.00
2018-04-25T07:22:44.669Z,89.10
2018-04-25T07:25:13.005Z,85.70
2018-04-25T07:27:40.621Z,85.60
2018-04-25T07:30:08.158Z,84.70
2018-04-25T07:32:35.617Z,83.20
2018-04-25T07:35:03.257Z,81.60
2018-04-25T07:37:30.768Z,81.70
2018-04-25T07:39:58.255Z,80.60
2018-04-25T07:42:26.492Z,81.40
2018-04-25T07:44:53.969Z,81.40
2018-04-25T07:47:22.594Z,72.90
2018-04-25T07:49:50.257Z,72.80
2018-04-25T07:52:17.978Z,69.30
2018-04-25T07:54:45.489Z,67.60
2018-04-25T07:57:13.167Z,65.70
2018-04-25T07:59:40.747Z,63.80
2018-04-25T08:02:08.662Z,66.60
2018-04-25T08:04:36.629Z,66.00
2018-04-25T08:07:04.395Z,64.30
2018-04-25T08:09:31.992Z,64.00
2018-04-25T08:11:59.578Z,62.80
2018-04-25T08:14:39.885Z,60.30
2018-04-25T08:17:19.398Z,60.20
2018-04-25T08:19:59.390Z,62.90
2018-04-25T08:22:26.910Z,59.40
2018-04-25T08:24:54.407Z,59.10
2018-04-25T08:27:22.187Z,57.40
2018-04-25T08:29:49.849Z,56.00
2018-04-25T08:32:20.821Z,56.20
2018-04-25T08:34:48.542Z,55.90
2018-04-25T08:37:16.354Z,53.80
2018-04-25T08:39:44.043Z,52.30
2018-04-25T08:42:11.890Z,50.50
2018-04-25T08:44:39.761Z,47.50
2018-04-25T08:47:07.359Z,45.40
2018-04-25T08:49:34.971Z,42.50
2018-04-25T08:52:02.993Z,41.30
2018-04-25T08:54:30.598Z,42.70
2018-04-25T08:56:58.342Z,41.30
2018-04-25T08:59:25.977Z,39.70
2018-04-25T09:01:54.707Z,36.80
2018-04-25T09:04:22.189Z,36.70
2018-04-25T09:06:49.705Z,35.40
2018-04-25T09:09:17.330Z,35.10
2018-04-25T09:11:46.043Z,34.30
2018-04-25T09:14:14.058Z,34.30
2018-04-25T09:16:41.527Z,36.20
2018-04-25T09:19:09.257Z,38.70
2018-04-25T09:21:36.975Z,41.90
2018-04-25T09:24:05.805Z,44.80
2018-04-25T09:26:33.656Z,44.60
2018-04-25T09:29:01.619Z,44.40
2018-04-25T09:31:29.980Z,44.10
2018-04-25T09:33:57.864Z,45.40
2018-04-25T09:36:25.910Z,47.40
2018-04-25T09:38:54.248Z,50.50
2018-04-25T09:41:21.848Z,50.50
2018-04-25T09:43:50.584Z,53.90
2018-04-25T09:46:18.532Z,53.90
2018-04-25T09:48:46.297Z,55.40
2018-04-25T09:51:14.128Z,53.50
2018-04-25T09:53:41.821Z,49.80
2018-04-25T09:56:10.140Z,47.20
2018-04-25T09:58:38.273Z,46.00
2018-04-25T10:01:06.331Z,44.80
2018-04-25T10:03:33.920Z,42.50
2018-04-25T10:06:01.545Z,40.20
2018-04-25T10:08:29.138Z,37.10
2018-04-25T10:10:57.052Z,33.00
2018-04-25T10:13:25.451Z,29.60
2018-04-25T10:15:53.213Z,29.50
2018-04-25T10:18:20.968Z,30.90
2018-04-25T10:20:48.598Z,32.30
2018-04-25T10:23:17.053Z,34.20
2018-04-25T10:25:45.265Z,34.60
2018-04-25T10:28:14.695Z,38.00
2018-04-25T10:30:42.269Z,37.90
2018-04-25T10:33:09.777Z,39.30
2018-04-25T10:35:38.314Z,40.80
2018-04-25T10:38:06.068Z,40.80
2018-04-25T10:40:33.813Z,40.70
2018-04-25T10:43:01.887Z,42.10
2018-04-25T10:45:29.804Z,42.00
2018-04-25T10:47:57.956Z,41.30
2018-04-25T10:50:25.627Z,41.70
2018-04-25T10:52:53.495Z,42.10
2018-04-25T10:55:22.212Z,42.20
2018-04-25T10:57:50.132Z,42.20
2018-04-25T11:00:17.975Z,42.60
2018-04-25T11:02:45.660Z,43.00
2018-04-25T11:05:13.632Z,42.70
2018-04-25T11:07:42.396Z,40.10
2018-04-25T11:10:10.401Z,40.10
2018-04-25T11:12:37.993Z,39.10
2018-04-25T11:15:06.176Z,38.30
2018-04-25T11:17:34.005Z,37.40
2018-04-25T11:20:02.666Z,37.30
2018-04-25T11:22:30.340Z,37.20
2018-04-25T11:24:58.046Z,37.70
2018-04-25T11:27:25.647Z,37.60
2018-04-25T11:29:53.563Z,36.90
2018-04-25T11:32:21.333Z,36.60
2018-04-25T11:34:49.239Z,37.60
2018-04-25T11:37:17.935Z,38.10
2018-04-25T11:39:45.764Z,38.10
2018-04-25T11:42:13.569Z,38.00
2018-04-25T11:44:41.066Z,39.20
2018-04-25T11:47:08.963Z,39.30
2018-04-25T11:49:37.265Z,39.80
2018-04-25T11:52:06.022Z,39.90
2018-04-25T11:54:33.961Z,39.80
2018-04-25T11:57:01.735Z,39.90
2018-04-25T11:59:29.329Z,39.80
2018-04-25T12:01:57.843Z,40.20
2018-04-25T12:04:26.578Z,39.40
2018-04-25T12:06:54.412Z,39.50
2018-04-25T12:09:22.157Z,38.90
2018-04-25T12:11:50.661Z,39.80
2018-04-25T12:14:18.321Z,39.80
2018-04-25T12:16:46.213Z,40.10
2018-04-25T12:19:13.728Z,40.40
2018-04-25T12:21:41.314Z,39.70
2018-04-25T12:24:08.824Z,40.10
2018-04-25T12:26:37.136Z,40.90
2018-04-25T12:29:04.812Z,40.90
2018-04-25T12:31:32.395Z,42.00
2018-04-25T12:34:00.210Z,42.00
2018-04-25T12:36:27.881Z,41.50
2018-04-25T12:38:55.405Z,40.80
2018-04-25T12:41:23.756Z,39.90
2018-04-25T12:43:52.176Z,39.70
2018-04-25T12:46:19.945Z,39.70
2018-04-25T12:48:48.382Z,40.20
2018-04-25T12:51:16.212Z,39.60
2018-04-25T12:53:43.825Z,38.90
2018-04-25T12:56:12.227Z,39.20
2018-04-25T12:58:39.833Z,39.20
2018-04-25T13:01:07.311Z,39.10
2018-04-25T13:03:35.714Z,37.50
2018-04-25T13:06:03.513Z,37.40
2018-04-25T13:08:31.306Z,36.10
2018-04-25T13:10:59.577Z,36.30
2018-04-25T13:13:27.312Z,36.30
2018-04-25T13:15:54.911Z,36.20
2018-04-25T13:18:22.314Z,35.70
2018-04-25T13:20:50.001Z,36.00
2018-04-25T13:23:17.689Z,36.00
2018-04-25T13:25:46.030Z,36.70
2018-04-25T13:28:13.611Z,36.60
2018-04-25T13:30:41.154Z,37.00
2018-04-25T13:33:08.697Z,36.80
2018-04-25T13:35:36.466Z,37.20
2018-04-25T13:38:03.957Z,37.50
2018-04-25T13:40:32.255Z,37.60
2018-04-25T13:42:59.709Z,37.60
2018-04-25T13:45:27.265Z,37.60
2018-04-25T13:47:54.886Z,37.40
2018-04-25T13:50:23.120Z,37.30
2018-04-25T13:52:50.630Z,37.20
2018-04-25T13:55:18.186Z,36.70
2018-04-25T13:57:45.782Z,36.30
2018-04-25T14:00:13.347Z,37.10
2018-04-25T14:02:40.972Z,37.10
2018-04-25T14:05:09.480Z,36.60
2018-04-25T14:07:37.196Z,36.70
2018-04-25T14:10:05.621Z,37.90
2018-04-25T14:12:33.101Z,38.00
2018-04-25T14:15:00.665Z,38.40
2018-04-25T14:17:28.543Z,39.30
2018-04-25T14:19:56.884Z,38.50
2018-04-25T14:22:24.747Z,38.40
2018-04-25T14:24:52.544Z,38.10
2018-04-25T14:27:20.240Z,38.00
2018-04-25T14:29:48.746Z,37.70
2018-04-25T14:32:16.714Z,37.70
2018-04-25T14:34:44.641Z,37.60
2018-04-25T14:37:13.340Z,37.80
2018-04-25T14:39:41.753Z,38.60
2018-04-25T14:42:09.311Z,38.50
2018-04-25T14:44:37.781Z,39.30
2018-04-25T14:47:06.270Z,39.30
2018-04-25T14:49:33.965Z,39.90
2018-04-25T14:52:01.923Z,40.10
2018-04-25T14:54:29.671Z,40.30
2018-04-25T14:56:57.376Z,40.50
2018-04-25T14:59:25.978Z,46.10
2018-04-25T15:01:54.689Z,46.10
2018-04-25T15:04:22.351Z,46.10
2018-04-25T15:06:49.923Z,45.50
2018-04-25T15:09:17.531Z,46.70
2018-04-25T15:11:45.734Z,47.00
2018-04-25T15:14:13.418Z,47.40
2018-04-25T15:16:41.189Z,47.00
2018-04-25T15:19:10.411Z,45.80
2018-04-25T15:21:38.797Z,44.50
2018-04-25T15:24:07.222Z,42.40
2018-04-25T15:26:36.063Z,42.40
2018-04-25T15:29:05.682Z,41.80
2018-04-25T15:31:33.588Z,41.80
2018-04-25T15:34:01.353Z,42.10
2018-04-25T15:36:29.018Z,41.50
2018-04-25T15:38:57.901Z,40.60
2018-04-25T15:41:25.491Z,40.40
2018-04-25T15:43:53.049Z,40.50
2018-04-25T15:46:20.527Z,40.40
2018-04-25T15:48:48.972Z,40.30
2018-04-25T15:51:16.556Z,40.30
2018-04-25T15:53:45.162Z,39.90
2018-04-25T15:56:12.852Z,39.80
2018-04-25T15:58:41.419Z,40.50
2018-04-25T16:01:09.318Z,41.30
2018-04-25T16:03:37.209Z,41.10
2018-04-25T16:06:05.744Z,40.20
2018-04-25T16:08:34.626Z,40.20
2018-04-25T16:11:02.354Z,40.30
2018-04-25T16:13:30.012Z,40.40
2018-04-25T16:15:57.847Z,40.40
2018-04-25T16:18:25.392Z,40.60
2018-04-25T16:20:53.044Z,40.50
2018-04-25T16:23:21.710Z,40.30
2018-04-25T16:25:49.304Z,40.40
2018-04-25T16:28:17.014Z,40.50
2018-04-25T16:30:44.696Z,40.70
2018-04-25T16:33:12.537Z,40.40
2018-04-25T16:35:40.272Z,40.00
2018-04-25T16:38:08.020Z,40.20
2018-04-25T16:40:35.844Z,39.80
2018-04-25T16:43:03.480Z,39.90
2018-04-25T16:45:32.086Z,40.60
2018-04-25T16:48:00.259Z,40.70
2018-04-25T16:50:27.992Z,40.10
2018-04-25T16:52:55.593Z,40.10
2018-04-25T16:55:23.339Z,41.20
2018-04-25T16:57:50.869Z,42.00
2018-04-25T17:00:19.169Z,42.40
2018-04-25T17:02:46.931Z,42.40
2018-04-25T17:05:14.542Z,43.00
2018-04-25T17:07:42.278Z,43.30
2018-04-25T17:10:09.808Z,43.90
2018-04-25T17:12:37.609Z,44.60
2018-04-25T17:15:05.477Z,45.00
2018-04-25T17:17:33.235Z,45.30
2018-04-25T17:20:00.967Z,45.70
2018-04-25T17:22:28.740Z,45.80
2018-04-25T17:24:56.438Z,46.20
2018-04-25T17:27:24.077Z,46.80
2018-04-25T17:29:51.869Z,46.90
2018-04-25T17:32:19.784Z,47.00
2018-04-25T17:34:47.314Z,47.20
2018-04-25T17:37:15.627Z,48.10
2018-04-25T17:39:43.351Z,48.00
2018-04-25T17:42:11.735Z,48.60
2018-04-25T17:44:40.263Z,48.80
2018-04-25T17:47:07.860Z,48.80
2018-04-25T17:49:37.073Z,49.50
2018-04-25T17:52:04.701Z,49.50
2018-04-25T17:54:32.403Z,50.20
2018-04-25T17:57:00.347Z,51.40
2018-04-25T17:59:28.908Z,52.70
2018-04-25T18:01:57.064Z,52.70
2018-04-25T18:04:24.763Z,53.00
2018-04-25T18:06:53.315Z,52.50
2018-04-25T18:09:21.079Z,52.30
2018-04-25T18:11:48.692Z,51.60
2018-04-25T18:14:16.208Z,51.40
2018-04-25T18:16:43.855Z,51.10
2018-04-25T18:19:12.062Z,51.70
2018-04-25T18:21:40.528Z,51.90
2018-04-25T18:24:08.911Z,52.20
2018-04-25T18:26:37.370Z,52.50
2018-04-25T18:29:04.871Z,52.50
2018-04-25T18:31:32.751Z,52.40
2018-04-25T18:34:00.243Z,52.10
2018-04-25T18:36:27.960Z,52.00
2018-04-25T18:38:55.732Z,51.90
2018-04-25T18:41:23.218Z,52.10
2018-04-25T18:43:50.786Z,52.40
2018-04-25T18:46:18.483Z,52.40
2018-04-25T18:48:46.970Z,52.60
2018-04-25T18:51:14.892Z,52.50
2018-04-25T18:53:42.485Z,52.50
2018-04-25T18:56:09.974Z,53.20
2018-04-25T18:58:37.546Z,55.00
2018-04-25T19:01:05.286Z,56.70
2018-04-25T19:03:33.151Z,56.90
2018-04-25T19:06:01.015Z,57.50
2018-04-25T19:08:28.634Z,59.10
2018-04-25T19:10:56.948Z,59.20
2018-04-25T19:13:24.633Z,59.20
2018-04-25T19:15:53.080Z,61.10
2018-04-25T19:18:20.919Z,61.00
2018-04-25T19:20:49.978Z,62.40
2018-04-25T19:23:17.575Z,62.40
2018-04-25T19:25:45.835Z,64.90
2018-04-25T19:28:13.525Z,64.90
2018-04-25T19:30:41.106Z,65.30
2018-04-25T19:33:08.761Z,65.60
2018-04-25T19:35:36.250Z,66.10
2018-04-25T19:38:03.836Z,66.30
2018-04-25T19:40:32.197Z,67.40
2018-04-25T19:42:59.908Z,67.40
2018-04-25T19:45:27.401Z,68.10
2018-04-25T19:47:54.993Z,68.30
2018-04-25T19:50:23.220Z,68.50
2018-04-25T19:52:50.719Z,68.50
2018-04-25T19:55:18.971Z,69.00
2018-04-25T19:57:46.478Z,68.30
2018-04-25T20:00:14.817Z,69.40
2018-04-25T20:02:43.140Z,70.90
2018-04-25T20:05:10.655Z,70.70
2018-04-25T20:07:38.207Z,70.40
2018-04-25T20:10:06.025Z,69.10
2018-04-25T20:12:33.827Z,68.80
2018-04-25T20:15:01.375Z,67.60
2018-04-25T20:17:29.098Z,67.50
2018-04-25T20:19:56.607Z,67.60
2018-04-25T20:22:24.269Z,67.20
2018-04-25T20:24:53.292Z,67.20
2018-04-25T20:27:20.847Z,67.20
2018-04-25T20:29:49.191Z,66.20
2018-04-25T20:32:17.033Z,64.80
2018-04-25T20:34:44.562Z,64.00
2018-04-25T20:37:12.190Z,63.40
2018-04-25T20:39:40.442Z,62.50
2018-04-25T20:42:07.931Z,62.50
2018-04-25T20:44:36.214Z,62.30
2018-04-25T20:47:03.838Z,62.30
2018-04-25T20:49:31.402Z,62.30
2018-04-25T20:51:58.875Z,62.80
2018-04-25T20:54:27.136Z,63.00
2018-04-25T20:59:49.744Z,63.20
2018-04-25T21:02:17.524Z,63.50
2018-04-25T21:04:45.294Z,63.70
2018-04-25T21:07:12.827Z,64.10
2018-04-25T21:09:40.589Z,64.00
2018-04-25T21:12:08.110Z,63.80
2018-04-25T21:14:36.465Z,64.10
2018-04-25T21:17:04.030Z,63.90
2018-04-25T21:19:31.751Z,64.30
2018-04-25T21:21:59.535Z,64.60
2018-04-25T21:24:27.085Z,64.40
2018-04-25T21:26:54.744Z,63.60
2018-04-25T21:29:23.235Z,62.80
2018-04-25T21:31:51.487Z,61.80
2018-04-25T21:34:19.104Z,61.70
2018-04-25T21:36:47.453Z,61.30
2018-04-25T21:39:14.982Z,61.30
2018-04-25T21:41:42.575Z,61.00
2018-04-25T21:44:10.180Z,60.40
2018-04-25T21:46:37.901Z,60.50
2018-04-25T21:49:05.715Z,60.50
2018-04-25T21:51:33.430Z,60.30
2018-04-25T21:54:01.321Z,61.30
2018-04-25T21:56:29.719Z,61.10
2018-04-25T21:58:57.373Z,61.10
2018-04-25T22:01:24.864Z,60.80
2018-04-25T22:03:52.477Z,60.60
2018-04-25T22:06:20.052Z,60.30
2018-04-25T22:08:47.602Z,59.20
2018-04-25T22:11:15.139Z,58.80
2018-04-25T22:13:42.731Z,58.80
2018-04-25T22:16:10.314Z,58.70
2018-04-25T22:18:38.096Z,58.10
2018-04-25T22:21:05.686Z,58.10
2018-04-25T22:23:34.294Z,58.50
2018-04-25T22:26:01.842Z,58.50
2018-04-25T22:28:29.390Z,58.50
2018-04-25T22:30:56.944Z,58.80
2018-04-25T22:33:24.480Z,59.20
2018-04-25T22:35:52.763Z,59.20
2018-04-25T22:38:21.105Z,59.40
2018-04-25T22:40:48.727Z,59.40
2018-04-25T22:43:16.306Z,58.70
2018-04-25T22:45:43.825Z,58.70
2018-04-25T22:48:11.470Z,58.60
2018-04-25T22:50:39.777Z,58.80
2018-04-25T22:53:07.346Z,58.70
2018-04-25T22:55:34.879Z,58.80
2018-04-25T22:58:02.535Z,58.80
2018-04-25T23:00:30.683Z,58.90
2018-04-25T23:02:58.183Z,58.90
2018-04-25T23:05:25.688Z,59.10
2018-04-25T23:07:53.359Z,58.70
2018-04-25T23:10:21.688Z,58.90
2018-04-25T23:12:49.547Z,58.90
2018-04-25T23:15:17.137Z,58.80
2018-04-25T23:17:44.764Z,58.90
2018-04-25T23:20:12.356Z,58.80
2018-04-25T23:22:39.937Z,58.90
2018-04-25T23:25:08.211Z,58.80
2018-04-25T23:27:35.810Z,58.80
2018-04-25T23:30:04.335Z,58.80
2018-04-25T23:32:31.803Z,58.80
2018-04-25T23:35:00.111Z,59.20
2018-04-25T23:37:28.191Z,58.80
2018-04-25T23:39:55.721Z,58.80
2018-04-25T23:42:24.018Z,59.10
2018-04-25T23:44:51.489Z,59.10
2018-04-25T23:47:18.977Z,59.10
2018-04-25T23:49:46.439Z,59.20
2018-04-25T23:52:13.923Z,59.00
2018-04-25T23:54:42.141Z,59.30
2018-04-25T23:57:09.613Z,59.20
2018-04-25T23:59:37.172Z,59.30
